Pagina principale
METAR-TAF:

METAR-TAF

Aeroporti :

Sarzana, Italia

Luni

latitudine: 44-05N, longitudine: 009-59E, altezza: 9 m

Osservazione

Il bollettino è stato emesso 15 ore e 44 minuti fa, alle 14:55 UTC
Vento 3 kt da est/sud-est
Temperature 12°C
Umidità 88%
Pressione 1009 hPa
Visibilità: 3000 m
Nubi sparse ad un'altezza di 1000 ft
Nuvoloso ad un'altezza di 2000 ft
pioggia debole, foschia

METAR: LIQW 161455Z 12003KT 3000 -RA BR SCT010 BKN020 12/10 Q1009 RMK OVC VIS MIN 3000 WIND THR18 14003KT YLO

Ora: 07:39 (06:39 UTC)


TAF: mancante

Osservazioni e previsioni meteorologiche di più di 4000 aeroporti (messaggi METAR e TAF).

Le stazioni disponibili sono rappresentate dai dischi gialli e rossi sulla carta.

Puntare il mouse per vedere il nome della stazione.

Clicca sopra per visualizzare le osservazioni e previsioni meteorologiche.

Per cambiare la mappa : fare clic sui pulsanti verdi con una croce nera per ingrandire, il pulsante verde con un trattino per diminuire, o sulla freccia verde per le mappe adiacenti.


METAR-TAF: